Time;durP1;ratioP1;P1;durP2;ratioP2;P2;SDS_P1;SDS_P2;PMS_P1;PMS_P2;Temp;Humidity;BMP_temperature;BMP_pressure;BME280_temperature;BME280_humidity;BME280_pressure;Samples;Min_cycle;Max_cycle;Signal;HPM_P1;HPM_P2
2022/12/19 00:00:16;;;;;;;26.35;16.38;;;;;;;5.63;100.00;101813.03;5091583;28;20020;-70
2022/12/19 00:02:42;;;;;;;24.58;15.50;;;;;;;5.45;100.00;101813.47;5073421;28;20052;-70
2022/12/19 00:05:07;;;;;;;24.52;15.10;;;;;;;5.53;100.00;101806.94;5092376;28;20040;-70
2022/12/19 00:07:33;;;;;;;24.02;15.75;;;;;;;5.64;100.00;101813.09;5074004;28;20486;-70
2022/12/19 00:09:58;;;;;;;25.13;16.73;;;;;;;5.46;100.00;101796.69;5092286;28;20463;-70
2022/12/19 00:12:23;;;;;;;24.05;15.75;;;;;;;5.27;100.00;101782.81;5092166;28;20027;-70
2022/12/19 00:14:49;;;;;;;22.45;15.27;;;;;;;4.97;100.00;101751.88;5091837;28;20028;-71
2022/12/19 00:17:16;;;;;;;24.75;15.80;;;;;;;5.55;100.00;101830.53;5092092;28;20410;-70
2022/12/19 00:19:42;;;;;;;25.05;16.50;;;;;;;5.34;100.00;101794.75;5091392;28;20498;-69
2022/12/19 00:22:07;;;;;;;24.63;15.63;;;;;;;5.34;100.00;101819.97;5091719;28;20028;-70
2022/12/19 00:24:32;;;;;;;27.15;17.20;;;;;;;4.89;100.00;101746.63;5072832;28;20028;-70
2022/12/19 00:26:58;;;;;;;23.08;15.77;;;;;;;5.45;100.00;101822.75;5072847;28;20035;-69
2022/12/19 00:29:23;;;;;;;24.48;15.88;;;;;;;5.48;100.00;101810.19;5091186;28;20107;-69
2022/12/19 00:31:49;;;;;;;26.88;16.92;;;;;;;5.24;100.00;101811.34;5091553;28;20439;-70
2022/12/19 00:34:14;;;;;;;27.80;18.20;;;;;;;5.39;100.00;101817.56;5091493;28;20419;-69
2022/12/19 00:36:40;;;;;;;28.45;18.13;;;;;;;4.91;100.00;101750.03;5091208;28;20028;-70
2022/12/19 00:39:05;;;;;;;27.05;17.58;;;;;;;5.31;100.00;101827.44;5091036;28;20085;-70
2022/12/19 00:41:33;;;;;;;25.60;17.42;;;;;;;5.20;100.00;101801.16;5091192;28;20093;-69
2022/12/19 00:44:04;;;;;;;27.40;17.17;;;;;;;5.32;100.00;101824.13;5080816;28;20037;-70
2022/12/19 00:46:31;;;;;;;28.27;17.83;;;;;;;4.82;100.00;101722.13;5070615;28;20044;-69
2022/12/19 00:48:58;;;;;;;26.67;17.65;;;;;;;5.41;100.00;101836.09;5070903;28;20024;-69
2022/12/19 00:51:35;;;;;;;30.40;18.13;;;;;;;4.90;100.00;101745.84;5070764;28;20024;-69
2022/12/19 00:54:01;;;;;;;30.05;17.90;;;;;;;4.83;100.00;101746.50;5071282;28;20112;-69
2022/12/19 00:56:29;;;;;;;25.88;17.83;;;;;;;4.79;100.00;101752.31;5070442;28;20040;-69
2022/12/19 00:58:56;;;;;;;27.52;18.17;;;;;;;5.05;100.00;101804.16;5070694;28;20070;-69
2022/12/19 01:01:30;;;;;;;26.08;18.25;;;;;;;5.00;100.00;101810.75;5070825;28;20057;-69
2022/12/19 01:03:57;;;;;;;29.58;17.77;;;;;;;5.26;100.00;101851.72;5052610;28;20028;-69
2022/12/19 01:06:23;;;;;;;27.77;18.52;;;;;;;4.76;100.00;101771.50;5070528;28;20046;-68
2022/12/19 01:08:49;;;;;;;31.73;19.13;;;;;;;5.10;100.00;101854.66;5052703;28;20040;-69
2022/12/19 01:11:14;;;;;;;30.45;20.10;;;;;;;4.74;100.00;101756.38;5070283;28;20024;-70
2022/12/19 01:13:40;;;;;;;30.45;19.10;;;;;;;5.07;100.00;101835.28;5070281;28;20036;-70
2022/12/19 01:16:11;;;;;;;29.90;19.73;;;;;;;4.75;100.00;101779.91;5070764;28;20040;-69
2022/12/19 01:18:37;;;;;;;30.23;19.63;;;;;;;5.13;100.00;101849.72;5070650;28;20108;-69
2022/12/19 01:21:09;;;;;;;31.92;20.20;;;;;;;5.32;100.00;101853.50;5070702;28;20124;-69
2022/12/19 01:23:35;;;;;;;31.00;19.33;;;;;;;5.01;100.00;101855.28;5070468;28;20055;-69
2022/12/19 01:26:00;;;;;;;32.13;20.13;;;;;;;4.57;100.00;101784.47;5070120;28;20469;-69
2022/12/19 01:28:26;;;;;;;32.40;20.35;;;;;;;4.58;100.00;101786.16;5070155;28;20033;-70
2022/12/19 01:30:51;;;;;;;33.80;21.15;;;;;;;5.03;100.00;101860.38;5070313;28;20478;-70
2022/12/19 01:33:19;;;;;;;32.08;20.23;;;;;;;4.95;100.00;101860.19;5070608;28;20032;-69
2022/12/19 01:35:46;;;;;;;34.03;22.00;;;;;;;4.75;100.00;101782.41;5070281;28;20135;-69
2022/12/19 01:38:16;;;;;;;33.53;21.10;;;;;;;4.41;100.00;101768.13;5052353;28;20024;-70
2022/12/19 01:41:09;;;;;;;33.03;20.80;;;;;;;5.10;100.00;101827.81;5051910;28;20071;-69
2022/12/19 01:44:13;;;;;;;35.17;21.95;;;;;;;4.95;100.00;101844.22;5066603;28;20033;-69
2022/12/19 01:46:50;;;;;;;35.40;21.58;;;;;;;5.03;100.00;101823.41;4991017;28;20026;-70
2022/12/19 01:49:34;;;;;;;35.85;22.80;;;;;;;4.73;100.00;101754.66;4992639;28;20058;-69
2022/12/19 01:52:05;;;;;;;34.90;22.15;;;;;;;4.78;100.00;101754.75;5047441;28;20119;-69
2022/12/19 01:54:34;;;;;;;36.47;22.73;;;;;;;5.35;100.00;101830.91;5074005;28;20028;-69
2022/12/19 01:57:01;;;;;;;37.08;22.50;;;;;;;4.95;100.00;101766.13;5074226;28;20032;-69
2022/12/19 01:59:40;;;;;;;32.40;21.35;;;;;;;5.50;100.00;101829.59;5055908;28;20024;-69
2022/12/19 02:02:31;;;;;;;36.22;22.50;;;;;;;5.22;100.00;101840.72;5073809;28;20396;-69
2022/12/19 02:04:57;;;;;;;34.55;21.73;;;;;;;5.25;100.00;101850.84;5056047;28;20085;-70
2022/12/19 02:07:25;;;;;;;33.97;21.88;;;;;;;5.35;100.00;101856.13;5073876;28;20036;-70
2022/12/19 02:09:53;;;;;;;35.90;21.95;;;;;;;4.41;100.00;101737.91;5055558;28;20080;-70
2022/12/19 02:12:19;;;;;;;33.33;20.98;;;;;;;4.99;100.00;101821.63;5074213;28;20123;-70
2022/12/19 02:14:46;;;;;;;33.83;22.20;;;;;;;4.90;100.00;101758.44;5055796;28;20127;-70
2022/12/19 02:17:36;;;;;;;33.58;21.67;;;;;;;4.73;100.00;101734.53;5073270;28;20051;-69
2022/12/19 02:20:17;;;;;;;31.85;21.13;;;;;;;5.20;100.00;101867.53;5055828;28;20089;-69
2022/12/19 02:23:05;;;;;;;34.13;20.65;;;;;;;5.05;100.00;101785.69;5073483;28;20502;-69
2022/12/19 02:25:36;;;;;;;33.88;21.13;;;;;;;5.51;100.00;101866.59;5062581;28;20037;-69
2022/12/19 02:28:02;;;;;;;34.33;21.90;;;;;;;5.24;100.00;101866.81;5055629;28;20085;-68
2022/12/19 02:30:39;;;;;;;35.58;21.83;;;;;;;5.27;100.00;101866.00;5073458;28;20112;-69
2022/12/19 02:33:17;;;;;;;35.88;21.33;;;;;;;4.75;100.00;101770.69;5055732;28;20052;-70
2022/12/19 02:35:53;;;;;;;30.70;19.55;;;;;;;5.11;100.00;101866.47;5072974;28;20044;-69
2022/12/19 02:38:29;;;;;;;27.38;18.42;;;;;;;5.19;100.00;101870.00;5072712;28;20116;-69
2022/12/19 02:41:02;;;;;;;28.95;18.30;;;;;;;4.53;100.00;101762.53;5073045;28;20028;-69
2022/12/19 02:43:31;;;;;;;30.83;17.60;;;;;;;4.84;100.00;101800.25;5073014;28;20106;-70
2022/12/19 02:45:59;;;;;;;25.58;16.55;;;;;;;5.25;100.00;101880.25;5073150;28;20050;-69
2022/12/19 02:48:26;;;;;;;27.35;17.20;;;;;;;5.14;100.00;101880.00;5085205;28;20119;-68
2022/12/19 02:50:51;;;;;;;26.50;17.38;;;;;;;4.57;100.00;101800.44;5093018;28;20089;-69
2022/12/19 02:53:17;;;;;;;27.25;17.25;;;;;;;5.03;100.00;101878.88;5075162;28;20035;-69
2022/12/19 02:55:49;;;;;;;28.25;18.02;;;;;;;4.74;100.00;101790.75;5093021;28;20071;-69
2022/12/19 02:58:29;;;;;;;;;;;;;;;4.98;100.00;101877.91;5090550;28;20032;-69
2022/12/19 03:01:23;;;;;;;24.38;15.82;;;;;;;4.95;100.00;101869.44;5093019;28;19937;-69
2022/12/19 03:04:01;;;;;;;26.33;16.33;;;;;;;5.22;100.00;101886.09;5051506;28;20115;-70
2022/12/19 03:06:35;;;;;;;25.50;15.88;;;;;;;5.24;100.00;101878.56;5034871;28;20033;-69
2022/12/19 03:09:15;;;;;;;28.00;16.55;;;;;;;5.25;100.00;101883.63;5034866;28;20045;-69
2022/12/19 03:11:42;;;;;;;24.27;16.08;;;;;;;4.98;100.00;101847.66;5034803;28;20032;-69
2022/12/19 03:14:15;;;;;;;26.02;16.10;;;;;;;4.55;100.00;101808.75;5034627;28;20056;-69
2022/12/19 03:16:40;;;;;;;25.58;16.85;;;;;;;5.09;100.00;101878.19;5034486;28;20114;-68
2022/12/19 03:19:13;;;;;;;25.73;16.60;;;;;;;5.26;100.00;101880.31;5050992;28;20459;-69
2022/12/19 03:21:48;;;;;;;29.48;18.02;;;;;;;4.67;100.00;101793.97;5065536;28;20033;-69
2022/12/19 03:24:15;;;;;;;30.55;18.77;;;;;;;5.21;100.00;101873.41;5072504;28;20399;-69
2022/12/19 03:26:59;;;;;;;31.73;19.50;;;;;;;5.24;100.00;101854.19;5054406;28;20036;-69
2022/12/19 03:29:51;;;;;;;30.58;17.42;;;;;;;5.21;100.00;101896.09;5072292;28;20501;-69
2022/12/19 03:32:19;;;;;;;19.77;12.73;;;;;;;5.06;100.00;101817.59;5088867;28;20043;-69
2022/12/19 03:34:56;;;;;;;27.52;16.98;;;;;;;4.99;100.00;101841.81;5092117;28;20046;-69
2022/12/19 03:37:25;;;;;;;31.08;18.63;;;;;;;4.49;100.00;101799.38;5092110;28;20035;-70
2022/12/19 03:39:57;;;;;;;28.98;18.05;;;;;;;5.24;100.00;101886.97;5092336;28;20023;-68
2022/12/19 03:45:12;;;;;;;24.92;16.10;;;;;;;5.05;100.00;101906.66;5092755;28;20158;-70
2022/12/19 03:47:43;;;;;;;26.00;16.17;;;;;;;5.06;100.00;101900.78;5092217;28;20032;-69
2022/12/19 03:50:09;;;;;;;23.35;15.23;;;;;;;4.55;100.00;101822.22;5059465;28;20032;-69
2022/12/19 03:52:50;;;;;;;23.63;15.02;;;;;;;5.17;100.00;101887.63;5071966;28;20036;-69
2022/12/19 03:55:36;;;;;;;25.93;15.93;;;;;;;5.01;100.00;101894.78;5053637;28;20036;-69
2022/12/19 03:58:08;;;;;;;23.95;14.73;;;;;;;4.80;100.00;101909.31;5071520;28;20029;-69
2022/12/19 04:00:35;;;;;;;21.73;14.02;;;;;;;4.21;100.00;101830.53;5072111;28;20028;-69
2022/12/19 04:03:04;;;;;;;21.67;13.98;;;;;;;4.38;100.00;101830.97;5071805;28;20147;-68
2022/12/19 04:05:30;;;;;;;21.80;14.45;;;;;;;4.33;100.00;101830.00;5071080;28;20043;-69
2022/12/19 04:08:01;;;;;;;23.75;14.48;;;;;;;4.18;100.00;101822.88;5070915;28;20036;-69
2022/12/19 04:10:28;;;;;;;16.65;10.77;;;;;;;4.56;100.00;101815.47;5071656;28;20040;-69
2022/12/19 04:12:59;;;;;;;22.63;14.60;;;;;;;4.65;100.00;101893.81;5071261;28;20039;-69
2022/12/19 04:15:36;;;;;;;;;;;;;;;4.79;100.00;101925.28;5073220;28;20044;-69
2022/12/19 04:18:05;;;;;;;21.77;12.73;;;;;;;4.65;100.00;101914.81;5071193;28;19916;-68
2022/12/19 04:20:35;;;;;;;21.70;13.65;;;;;;;4.54;100.00;101893.50;5071102;28;20089;-69
2022/12/19 04:23:26;;;;;;;18.95;12.25;;;;;;;4.61;100.00;101920.59;5070784;28;20028;-68
2022/12/19 04:25:56;;;;;;;21.08;12.38;;;;;;;4.57;100.00;101860.88;5090294;28;20038;-69
2022/12/19 04:28:30;;;;;;;20.95;12.77;;;;;;;4.14;100.00;101836.19;5091479;28;20036;-74
2022/12/19 04:30:56;;;;;;;21.15;12.93;;;;;;;4.27;100.00;101834.88;5060013;28;20056;-71
2022/12/19 04:33:21;;;;;;;21.13;12.38;;;;;;;4.90;100.00;101926.41;5052685;28;20356;-72
2022/12/19 04:35:47;;;;;;;20.45;12.80;;;;;;;4.06;100.00;101854.41;5033876;28;20037;-73
2022/12/19 04:38:12;;;;;;;20.30;12.55;;;;;;;4.69;100.00;101946.84;5052904;28;20138;-73
2022/12/19 04:40:38;;;;;;;20.90;12.30;;;;;;;4.62;100.00;101949.97;5034824;28;20029;-73
2022/12/19 04:43:03;;;;;;;20.77;13.25;;;;;;;4.33;100.00;101852.66;5064256;28;20043;-73
2022/12/19 04:45:29;;;;;;;20.88;13.38;;;;;;;4.28;100.00;101890.28;5071634;28;20522;-71
2022/12/19 04:47:54;;;;;;;21.38;13.18;;;;;;;4.81;100.00;101951.34;5070998;28;20032;-71
2022/12/19 04:50:19;;;;;;;22.35;14.77;;;;;;;4.42;100.00;101859.63;5053141;28;20021;-71
2022/12/19 04:52:45;;;;;;;22.48;14.45;;;;;;;4.37;100.00;101883.00;5070381;28;20462;-71
2022/12/19 04:55:10;;;;;;;22.73;14.40;;;;;;;4.73;100.00;101940.22;5049189;28;20116;-73
2022/12/19 04:57:36;;;;;;;24.40;13.32;;;;;;;4.85;100.00;101965.75;5051782;28;20437;-69
2022/12/19 05:00:02;;;;;;;20.50;13.10;;;;;;;4.69;100.00;101964.47;5063839;28;20032;-70
2022/12/19 05:02:30;;;;;;;18.95;12.73;;;;;;;4.70;100.00;101966.16;5073776;28;20055;-72
2022/12/19 05:04:56;;;;;;;22.25;14.07;;;;;;;4.70;100.00;101960.28;5092218;28;20454;-74
2022/12/19 05:07:21;;;;;;;20.88;13.13;;;;;;;4.55;100.00;101980.88;5092513;28;20028;-72
2022/12/19 05:09:47;;;;;;;22.33;13.32;;;;;;;4.16;100.00;101914.25;5091748;28;20035;-69
2022/12/19 05:12:16;;;;;;;21.48;12.95;;;;;;;4.37;100.00;101978.66;5091204;28;20055;-69
2022/12/19 05:14:41;;;;;;;20.27;11.98;;;;;;;4.44;100.00;101987.22;5090596;28;20505;-69
2022/12/19 05:17:07;;;;;;;20.08;12.55;;;;;;;4.27;100.00;101979.19;5091510;28;20028;-70
2022/12/19 05:19:32;;;;;;;21.33;13.00;;;;;;;3.53;100.00;101847.78;5091101;28;20032;-70
2022/12/19 05:21:58;;;;;;;20.70;13.25;;;;;;;3.96;100.00;101918.69;5072524;28;20235;-71
2022/12/19 05:24:23;;;;;;;21.77;13.68;;;;;;;3.86;100.00;101921.75;5091416;28;20020;-70
2022/12/19 05:26:49;;;;;;;18.98;12.80;;;;;;;3.81;100.00;101915.72;5090964;28;20043;-70
2022/12/19 05:29:18;;;;;;;21.92;12.77;;;;;;;3.89;100.00;101913.41;5072588;28;20058;-69
2022/12/19 05:31:43;;;;;;;22.10;14.23;;;;;;;4.54;100.00;102000.94;5090458;28;20039;-70
2022/12/19 05:34:09;;;;;;;20.63;12.68;;;;;;;4.27;100.00;102004.38;5090761;28;20028;-69
2022/12/19 05:36:35;;;;;;;21.00;13.48;;;;;;;3.67;100.00;101933.69;5073025;28;20091;-70
2022/12/19 05:39:01;;;;;;;20.88;13.10;;;;;;;3.66;100.00;101937.03;5048612;28;20052;-70
2022/12/19 05:41:26;;;;;;;19.67;12.23;;;;;;;3.31;100.00;101878.06;5072257;28;20478;-70
2022/12/19 05:43:53;;;;;;;23.33;13.82;;;;;;;5.58;100.00;101916.38;5082157;28;20036;-70
2022/12/19 05:46:19;;;;;;;22.15;13.43;;;;;;;2.74;100.00;101784.13;5070963;28;20035;-71
2022/12/19 05:48:45;;;;;;;19.08;11.98;;;;;;;3.46;100.00;101876.94;5043659;28;20052;-73
2022/12/19 05:51:11;;;;;;;18.85;11.45;;;;;;;4.22;100.00;102047.81;5050968;28;20432;-71
2022/12/19 05:53:37;;;;;;;19.17;12.27;;;;;;;4.28;100.00;102060.59;5049554;28;20116;-71
2022/12/19 05:56:12;;;;;;;19.17;12.15;;;;;;;3.32;100.00;101883.16;5051124;28;20636;-71
2022/12/19 05:58:39;;;;;;;20.60;12.18;;;;;;;4.37;100.00;102051.69;5051157;28;20119;-71
2022/12/19 06:01:08;;;;;;;18.58;11.30;;;;;;;3.71;100.00;101960.63;5050748;28;20162;-72
2022/12/19 06:03:34;;;;;;;20.83;12.52;;;;;;;4.04;100.00;102042.22;5051089;28;20062;-70
2022/12/19 06:06:09;;;;;;;18.80;12.07;;;;;;;4.12;100.00;102058.44;5050361;28;20033;-71
2022/12/19 06:08:35;;;;;;;18.17;11.68;;;;;;;4.11;100.00;102079.34;5050536;28;20033;-74
2022/12/19 06:11:05;;;;;;;19.75;11.40;;;;;;;3.74;100.00;101984.25;5050629;28;20086;-71
2022/12/19 06:13:35;;;;;;;20.23;11.93;;;;;;;4.05;100.00;102085.03;5049482;28;20036;-71
2022/12/19 06:16:13;;;;;;;20.63;12.15;;;;;;;3.77;100.00;101988.50;5050671;28;20025;-71
2022/12/19 06:18:40;;;;;;;21.20;11.90;;;;;;;3.59;100.00;101935.97;5050866;28;20189;-71
2022/12/19 06:21:10;;;;;;;20.73;12.57;;;;;;;3.80;100.00;102026.34;5050956;28;20044;-71
2022/12/19 06:23:36;;;;;;;16.73;11.07;;;;;;;3.96;100.00;102039.44;5050918;28;20033;-72
2022/12/19 06:26:04;;;;;;;18.88;10.95;;;;;;;4.26;100.00;102098.31;5050801;28;20415;-71
2022/12/19 06:28:31;;;;;;;19.90;10.70;;;;;;;4.25;100.00;102093.22;5050732;28;20106;-70
2022/12/19 06:30:57;;;;;;;17.63;11.23;;;;;;;4.48;100.00;102109.06;5032620;28;20024;-70
2022/12/19 06:33:26;;;;;;;15.80;10.48;;;;;;;4.36;100.00;102112.03;5053466;28;20099;-69
2022/12/19 06:36:01;;;;;;;16.38;10.07;;;;;;;3.79;100.00;102034.69;5054434;28;20073;-69
2022/12/19 06:38:28;;;;;;;17.83;10.95;;;;;;;4.55;100.00;102126.94;5054313;28;20032;-69
2022/12/19 06:43:38;;;;;;;19.42;11.52;;;;;;;3.97;100.00;102036.13;5054020;28;20040;-70
2022/12/19 06:46:04;;;;;;;20.30;13.30;;;;;;;4.25;100.00;102047.91;5052323;28;20029;-70
2022/12/19 06:48:30;;;;;;;22.85;14.27;;;;;;;4.52;100.00;102114.22;5053626;28;20033;-71
2022/12/19 06:51:00;;;;;;;17.25;12.20;;;;;;;4.27;100.00;102141.97;5054333;28;20029;-71
2022/12/19 06:53:26;;;;;;;16.38;11.80;;;;;;;4.07;100.00;102131.25;5054279;28;20041;-71
2022/12/19 06:55:54;;;;;;;16.27;10.00;;;;;;;4.04;100.00;102118.53;5053943;28;20040;-71
2022/12/19 06:58:20;;;;;;;16.23;11.48;;;;;;;3.68;100.00;102063.66;5053922;28;20025;-70
2022/12/19 07:00:46;;;;;;;18.92;10.05;;;;;;;3.90;100.00;102119.75;5054155;28;20041;-69
2022/12/19 07:03:14;;;;;;;15.00;9.30;;;;;;;4.24;100.00;102145.22;5054417;28;20457;-71
2022/12/19 07:05:40;;;;;;;18.40;11.20;;;;;;;4.13;100.00;102139.00;5053786;28;20411;-71
2022/12/19 07:08:07;;;;;;;11.38;6.28;;;;;;;3.66;100.00;102086.25;5054448;28;20021;-72
2022/12/19 07:10:33;;;;;;;10.55;6.47;;;;;;;4.03;100.00;102126.91;5053923;28;20033;-72
2022/12/19 07:12:58;;;;;;;9.35;5.75;;;;;;;3.76;100.00;102112.56;5035703;28;20389;-69
2022/12/19 07:15:24;;;;;;;14.23;7.40;;;;;;;3.93;100.00;102119.88;5053151;28;20084;-71
2022/12/19 07:17:49;;;;;;;9.95;5.80;;;;;;;3.61;100.00;102100.31;5035710;28;20111;-69
2022/12/19 07:20:16;;;;;;;9.10;5.22;;;;;;;3.66;100.00;102156.66;5035538;28;20495;-72
2022/12/19 07:22:43;;;;;;;9.32;5.43;;;;;;;3.58;100.00;102075.06;5035401;28;20029;-71
2022/12/19 07:25:09;;;;;;;11.98;6.07;;;;;;;4.04;100.00;102147.91;5053721;28;20112;-72
2022/12/19 07:27:35;;;;;;;12.10;7.85;;;;;;;4.34;100.00;102148.88;5035521;28;20028;-72
2022/12/19 07:30:01;;;;;;;27.92;16.98;;;;;;;3.73;100.00;102065.50;5053453;28;20031;-73
2022/12/19 07:32:26;;;;;;;19.42;11.55;;;;;;;4.07;100.00;102143.84;5053138;28;20021;-70
2022/12/19 07:34:52;;;;;;;10.68;5.60;;;;;;;4.00;100.00;102177.13;5052993;28;20041;-70
2022/12/19 07:37:23;;;;;;;25.08;11.35;;;;;;;3.43;100.00;102065.34;5053531;28;20037;-71
2022/12/19 07:39:48;;;;;;;9.85;6.07;;;;;;;3.37;100.00;102080.19;5053502;28;20029;-70
2022/12/19 07:42:14;;;;;;;12.30;6.32;;;;;;;3.27;100.00;102077.31;5053341;28;20573;-70
2022/12/19 07:44:39;;;;;;;11.35;6.18;;;;;;;3.15;100.00;102094.50;5034568;28;20117;-71
2022/12/19 07:47:05;;;;;;;11.30;6.05;;;;;;;3.37;100.00;102097.81;5053262;28;20120;-70
2022/12/19 07:49:30;;;;;;;18.02;8.90;;;;;;;4.13;100.00;102190.97;5053040;28;20041;-70
2022/12/19 07:51:55;;;;;;;18.90;11.15;;;;;;;3.88;100.00;102165.81;5053076;28;20063;-69
2022/12/19 07:54:21;;;;;;;16.05;8.90;;;;;;;3.26;100.00;102037.91;5052763;28;20384;-70
2022/12/19 07:56:47;;;;;;;11.02;6.22;;;;;;;3.70;100.00;102212.94;5035307;28;20037;-71
2022/12/19 07:59:12;;;;;;;18.38;9.98;;;;;;;4.16;100.00;102203.69;5052802;28;20542;-69
2022/12/19 08:01:38;;;;;;;18.88;9.75;;;;;;;3.62;100.00;102118.78;5053424;28;20057;-70
2022/12/19 08:04:03;;;;;;;12.30;7.68;;;;;;;3.71;100.00;102127.47;5052525;28;20484;-71
2022/12/19 08:06:29;;;;;;;15.00;8.52;;;;;;;4.01;100.00;102183.88;5052722;28;20036;-71
2022/12/19 08:08:54;;;;;;;17.38;8.82;;;;;;;4.12;100.00;102207.75;5052808;28;20037;-70
2022/12/19 08:11:26;;;;;;;12.52;6.82;;;;;;;3.63;100.00;102138.06;5052672;28;20509;-72
2022/12/19 08:13:54;;;;;;;10.75;6.38;;;;;;;4.12;100.00;102216.97;5052925;28;20041;-71
2022/12/19 08:16:19;;;;;;;12.10;7.40;;;;;;;3.95;100.00;102127.44;5052749;28;20041;-70
2022/12/19 08:18:46;;;;;;;13.68;7.88;;;;;;;4.48;100.00;102223.22;5052593;28;20031;-70
2022/12/19 08:21:12;;;;;;;14.65;7.57;;;;;;;3.71;100.00;102077.19;5052324;28;20029;-70
2022/12/19 08:23:38;;;;;;;15.82;9.45;;;;;;;4.37;100.00;102146.50;5052231;28;20044;-70
2022/12/19 08:26:06;;;;;;;12.18;6.78;;;;;;;4.52;100.00;102236.75;5052565;28;20059;-69
2022/12/19 08:28:33;;;;;;;17.50;8.95;;;;;;;4.88;100.00;102251.41;5052410;28;20037;-69
2022/12/19 08:31:05;;;;;;;14.25;8.70;;;;;;;4.94;100.00;102259.16;5052188;28;20062;-69
2022/12/19 08:33:31;;;;;;;14.93;7.50;;;;;;;4.07;100.00;102166.47;5034442;28;20033;-70
2022/12/19 08:35:56;;;;;;;12.48;6.30;;;;;;;4.10;100.00;102163.22;5052340;28;20040;-72
2022/12/19 08:38:21;;;;;;;13.63;8.02;;;;;;;4.07;100.00;102150.50;5052667;28;20037;-70
2022/12/19 08:40:53;;;;;;;10.95;5.97;;;;;;;4.30;100.00;102240.22;5051482;28;20114;-70
2022/12/19 08:43:21;;;;;;;12.68;7.45;;;;;;;4.55;100.00;102250.34;5052638;28;20029;-71
2022/12/19 08:45:49;;;;;;;14.07;7.70;;;;;;;3.87;100.00;102101.19;5052235;28;20056;-73
2022/12/19 08:48:16;;;;;;;14.65;7.90;;;;;;;4.17;100.00;102186.13;5034428;28;20121;-74
2022/12/19 08:50:55;;;;;;;19.48;8.55;;;;;;;4.49;100.00;102271.94;5051639;28;20475;-72
2022/12/19 08:53:25;;;;;;;21.35;10.32;;;;;;;4.04;100.00;102195.72;5052469;28;20032;-73
2022/12/19 08:55:59;;;;;;;20.58;11.00;;;;;;;4.58;100.00;102247.91;5051764;28;20064;-72
2022/12/19 08:58:26;;;;;;;16.48;8.60;;;;;;;4.84;100.00;102243.69;5052155;28;20063;-72
2022/12/19 09:00:52;;;;;;;13.80;7.75;;;;;;;4.13;100.00;102178.41;5051359;28;20507;-72
2022/12/19 09:03:18;;;;;;;31.95;13.25;;;;;;;4.49;100.00;102222.44;5051973;28;20036;-70
2022/12/19 09:05:44;;;;;;;18.25;8.40;;;;;;;4.45;100.00;102227.31;5051834;28;20116;-71
2022/12/19 09:08:09;;;;;;;15.10;7.90;;;;;;;3.88;100.00;102168.31;5052034;28;20571;-72
2022/12/19 09:10:36;;;;;;;19.38;9.15;;;;;;;4.42;100.00;102252.41;5052044;28;20087;-70
2022/12/19 09:13:02;;;;;;;14.82;8.32;;;;;;;4.39;100.00;102243.06;5051508;28;20029;-69
2022/12/19 09:15:29;;;;;;;14.65;8.23;;;;;;;3.48;100.00;102100.69;5033680;28;20028;-69
2022/12/19 09:17:54;;;;;;;15.73;9.00;;;;;;;4.45;100.00;102228.16;5051795;28;20024;-69
2022/12/19 09:20:22;;;;;;;18.58;8.73;;;;;;;4.44;100.00;102225.59;5034265;28;20432;-69
2022/12/19 09:22:47;;;;;;;18.63;8.32;;;;;;;4.04;100.00;102141.19;5049773;28;20495;-70
2022/12/19 09:25:13;;;;;;;16.65;8.88;;;;;;;4.27;100.00;102238.47;5051623;28;20087;-69
2022/12/19 09:27:39;;;;;;;18.30;9.23;;;;;;;4.34;100.00;102232.84;5051284;28;20037;-69
2022/12/19 09:30:05;;;;;;;17.02;9.40;;;;;;;4.14;100.00;102144.91;5051148;28;20025;-69
2022/12/19 09:32:30;;;;;;;18.73;10.13;;;;;;;4.04;100.00;102133.66;5052065;28;20047;-69
2022/12/19 09:34:56;;;;;;;19.67;10.43;;;;;;;3.93;100.00;102132.44;5051172;28;20037;-69
2022/12/19 09:37:21;;;;;;;16.20;8.32;;;;;;;3.80;100.00;102142.03;5051471;28;20071;-70
2022/12/19 09:39:47;;;;;;;17.13;9.30;;;;;;;4.10;100.00;102204.31;5050895;28;20029;-69
2022/12/19 09:42:35;;;;;;;18.83;8.13;;;;;;;4.00;100.00;102222.41;5033324;28;20040;-69
2022/12/19 09:45:24;;;;;;;15.65;8.18;;;;;;;4.10;100.00;102211.03;5042711;28;20075;-70
2022/12/19 09:47:56;;;;;;;17.27;9.90;;;;;;;3.19;100.00;102063.66;5051191;28;20044;-70
2022/12/19 09:50:31;;;;;;;29.65;12.80;;;;;;;3.50;100.00;102051.34;5033404;28;20025;-69
2022/12/19 09:53:03;;;;;;;19.15;9.38;;;;;;;4.06;100.00;102151.34;5049713;28;20033;-70
2022/12/19 09:55:35;;;;;;;21.42;10.75;;;;;;;4.43;100.00;102197.03;5050838;28;20055;-70
2022/12/19 09:58:22;;;;;;;20.38;10.57;;;;;;;4.49;100.00;102192.22;5051094;28;20078;-69
2022/12/19 10:00:56;;;;;;;19.73;10.43;;;;;;;3.89;100.00;102094.53;5051123;28;20091;-70
2022/12/19 10:03:27;;;;;;;18.13;10.27;;;;;;;4.68;100.00;102196.16;5051436;28;20025;-69
2022/12/19 10:05:58;;;;;;;26.83;12.97;;;;;;;4.25;100.00;102080.63;5050911;28;20033;-69
2022/12/19 10:08:44;;;;;;;13.50;7.47;;;;;;;4.58;100.00;102179.91;5065962;28;20274;-69
2022/12/19 10:11:15;;;;;;;18.00;8.68;;;;;;;4.62;100.00;102180.84;4370261;28;10000823;-69
2022/12/19 10:14:08;;;;;;;18.02;9.80;;;;;;;4.68;100.00;102174.34;5053574;28;21051;-71
2022/12/19 10:16:49;;;;;;;20.33;10.27;;;;;;;4.77;100.00;102162.06;5055437;28;20099;-70
2022/12/19 10:19:31;;;;;;;18.95;9.25;;;;;;;4.31;100.00;102099.31;5034512;28;20431;-70
2022/12/19 10:22:01;;;;;;;18.23;9.77;;;;;;;4.55;100.00;102161.31;5051542;28;20106;-71
2022/12/19 10:24:59;;;;;;;18.98;9.52;;;;;;;4.51;100.00;102174.63;5034448;28;20037;-70
2022/12/19 10:27:56;;;;;;;23.70;11.73;;;;;;;4.80;100.00;102164.66;5060337;28;20043;-70
2022/12/19 10:30:24;;;;;;;20.88;11.27;;;;;;;4.77;100.00;102149.44;5067250;28;20048;-70
2022/12/19 10:32:56;;;;;;;21.42;11.75;;;;;;;4.69;100.00;102162.63;5071436;28;20095;-71
2022/12/19 10:35:25;;;;;;;18.48;10.15;;;;;;;4.17;100.00;102079.53;5053341;28;20036;-73
2022/12/19 10:38:09;;;;;;;19.77;9.82;;;;;;;4.75;100.00;102160.28;5071092;28;20414;-71
2022/12/19 10:41:12;;;;;;;18.10;8.90;;;;;;;3.75;100.00;102020.28;5050105;28;20110;-71
2022/12/19 10:43:41;;;;;;;18.50;10.38;;;;;;;4.87;100.00;102156.44;5048128;28;20049;-72
2022/12/19 10:46:16;;;;;;;19.05;10.85;;;;;;;4.60;100.00;102082.56;5050082;28;20384;-71
2022/12/19 10:48:42;;;;;;;19.00;9.55;;;;;;;4.55;100.00;102124.41;5073186;28;20063;-69
2022/12/19 10:51:22;;;;;;;24.73;12.43;;;;;;;4.67;100.00;102088.66;5055686;28;20028;-70
2022/12/19 10:53:57;;;;;;;31.92;15.32;;;;;;;4.79;100.00;102104.13;5072820;28;20035;-71
2022/12/19 10:56:28;;;;;;;19.20;9.57;;;;;;;4.56;100.00;102077.38;5073677;28;20032;-71
2022/12/19 10:58:58;;;;;;;21.30;10.85;;;;;;;5.12;100.00;102141.25;5073520;28;20036;-70
2022/12/19 11:01:39;;;;;;;17.65;9.05;;;;;;;5.02;100.00;102130.88;5055689;28;20060;-72
2022/12/19 11:04:16;;;;;;;15.73;8.93;;;;;;;4.98;100.00;102146.69;5073842;28;20024;-71
2022/12/19 11:06:46;;;;;;;18.95;9.18;;;;;;;4.45;100.00;102067.00;5073913;28;20289;-70
2022/12/19 11:09:18;;;;;;;17.25;9.20;;;;;;;4.95;100.00;102139.06;5072777;28;20035;-70
2022/12/19 11:11:46;;;;;;;17.60;9.80;;;;;;;5.11;100.00;102144.59;5073534;28;20028;-70
2022/12/19 11:14:25;;;;;;;17.27;9.13;;;;;;;4.89;100.00;102147.28;5073596;28;20020;-71
2022/12/19 11:16:51;;;;;;;17.73;9.43;;;;;;;4.55;100.00;102086.63;5073069;28;20641;-71
2022/12/19 11:19:37;;;;;;;31.80;13.98;;;;;;;5.23;100.00;102149.97;5072029;28;20064;-71
2022/12/19 11:22:22;;;;;;;18.08;8.73;;;;;;;5.11;100.00;102153.84;5073612;28;20039;-71
2022/12/19 11:24:53;;;;;;;17.40;9.60;;;;;;;5.08;100.00;102091.56;5073675;28;20028;-71
2022/12/19 11:27:44;;;;;;;15.60;8.75;;;;;;;5.11;100.00;102141.22;5073716;28;20453;-71
2022/12/19 11:30:25;;;;;;;17.83;9.65;;;;;;;5.24;100.00;102139.09;5055510;28;20044;-72